sensor_id;sensor_type;location;lat;lon;timestamp;P1;durP1;ratioP1;P2;durP2;ratioP2
45863;SDS011;31579;52.354;16.974;2022-11-15T00:01:19;183.60;;;60.10;;
45863;SDS011;31579;52.354;16.974;2022-11-15T00:06:18;183.60;;;60.10;;
45863;SDS011;31579;52.354;16.974;2022-11-15T00:11:18;401.00;;;87.40;;
45863;SDS011;31579;52.354;16.974;2022-11-15T00:16:18;401.00;;;87.40;;
45863;SDS011;31579;52.354;16.974;2022-11-15T00:21:18;158.60;;;55.40;;
45863;SDS011;31579;52.354;16.974;2022-11-15T00:26:18;158.60;;;55.40;;
45863;SDS011;31579;52.354;16.974;2022-11-15T00:36:04;378.00;;;80.70;;
45863;SDS011;31579;52.354;16.974;2022-11-15T00:39:47;449.80;;;89.00;;
45863;SDS011;31579;52.354;16.974;2022-11-15T00:44:46;449.80;;;89.00;;
45863;SDS011;31579;52.354;16.974;2022-11-15T00:49:46;483.50;;;97.80;;
45863;SDS011;31579;52.354;16.974;2022-11-15T00:54:46;483.50;;;97.80;;
45863;SDS011;31579;52.354;16.974;2022-11-15T00:59:46;206.50;;;67.60;;
45863;SDS011;31579;52.354;16.974;2022-11-15T01:04:46;206.50;;;67.60;;
45863;SDS011;31579;52.354;16.974;2022-11-15T01:09:46;615.60;;;114.80;;
45863;SDS011;31579;52.354;16.974;2022-11-15T01:14:46;615.60;;;114.80;;
45863;SDS011;31579;52.354;16.974;2022-11-15T01:19:46;554.90;;;106.90;;
45863;SDS011;31579;52.354;16.974;2022-11-15T01:24:46;554.90;;;106.90;;
45863;SDS011;31579;52.354;16.974;2022-11-15T01:29:46;530.80;;;106.40;;
45863;SDS011;31579;52.354;16.974;2022-11-15T01:34:46;530.80;;;106.40;;
45863;SDS011;31579;52.354;16.974;2022-11-15T01:39:46;435.10;;;91.10;;
45863;SDS011;31579;52.354;16.974;2022-11-15T01:44:47;435.10;;;91.10;;
45863;SDS011;31579;52.354;16.974;2022-11-15T01:49:02;347.30;;;76.50;;
45863;SDS011;31579;52.354;16.974;2022-11-15T01:54:01;347.30;;;76.50;;
45863;SDS011;31579;52.354;16.974;2022-11-15T01:58:58;418.00;;;88.60;;
45863;SDS011;31579;52.354;16.974;2022-11-15T02:03:59;418.00;;;88.60;;
45863;SDS011;31579;52.354;16.974;2022-11-15T02:08:58;382.40;;;86.30;;
45863;SDS011;31579;52.354;16.974;2022-11-15T02:13:58;382.40;;;86.30;;
45863;SDS011;31579;52.354;16.974;2022-11-15T02:24:07;584.80;;;110.50;;
45863;SDS011;31579;52.354;16.974;2022-11-15T02:39:00;294.00;;;70.00;;
45863;SDS011;31579;52.354;16.974;2022-11-15T02:48:58;517.30;;;102.40;;
45863;SDS011;31579;52.354;16.974;2022-11-15T02:53:58;517.30;;;102.40;;
45863;SDS011;31579;52.354;16.974;2022-11-15T03:04:02;517.60;;;104.10;;
45863;SDS011;31579;52.354;16.974;2022-11-15T03:19:06;451.60;;;89.60;;
45863;SDS011;31579;52.354;16.974;2022-11-15T03:23:58;451.60;;;89.60;;
45863;SDS011;31579;52.354;16.974;2022-11-15T03:29:05;514.10;;;99.00;;
45863;SDS011;31579;52.354;16.974;2022-11-15T03:33:58;514.10;;;99.00;;
45863;SDS011;31579;52.354;16.974;2022-11-15T03:38:59;462.00;;;94.40;;
45863;SDS011;31579;52.354;16.974;2022-11-15T03:44:01;462.00;;;94.40;;
45863;SDS011;31579;52.354;16.974;2022-11-15T03:49:05;408.20;;;84.70;;
45863;SDS011;31579;52.354;16.974;2022-11-15T03:53:58;408.20;;;84.70;;
45863;SDS011;31579;52.354;16.974;2022-11-15T03:58:58;497.10;;;96.10;;
45863;SDS011;31579;52.354;16.974;2022-11-15T04:03:58;497.10;;;96.10;;
45863;SDS011;31579;52.354;16.974;2022-11-15T04:08:58;482.20;;;98.60;;
45863;SDS011;31579;52.354;16.974;2022-11-15T04:09:06;482.20;;;98.60;;
45863;SDS011;31579;52.354;16.974;2022-11-15T04:14:04;482.20;;;98.60;;
45863;SDS011;31579;52.354;16.974;2022-11-15T04:19:04;528.20;;;103.60;;
45863;SDS011;31579;52.354;16.974;2022-11-15T04:24:05;528.20;;;103.60;;
45863;SDS011;31579;52.354;16.974;2022-11-15T04:29:04;450.60;;;95.00;;
45863;SDS011;31579;52.354;16.974;2022-11-15T04:34:04;450.60;;;95.00;;
45863;SDS011;31579;52.354;16.974;2022-11-15T04:39:04;190.60;;;62.70;;
45863;SDS011;31579;52.354;16.974;2022-11-15T04:44:04;190.60;;;62.70;;
45863;SDS011;31579;52.354;16.974;2022-11-15T04:49:04;540.20;;;104.60;;
45863;SDS011;31579;52.354;16.974;2022-11-15T04:54:04;540.20;;;104.60;;
45863;SDS011;31579;52.354;16.974;2022-11-15T04:59:04;297.70;;;75.00;;
45863;SDS011;31579;52.354;16.974;2022-11-15T05:04:04;297.70;;;75.00;;
45863;SDS011;31579;52.354;16.974;2022-11-15T05:09:04;123.90;;;50.40;;
45863;SDS011;31579;52.354;16.974;2022-11-15T05:14:04;123.90;;;50.40;;
45863;SDS011;31579;52.354;16.974;2022-11-15T05:19:05;453.30;;;91.10;;
45863;SDS011;31579;52.354;16.974;2022-11-15T05:24:05;453.30;;;91.10;;
45863;SDS011;31579;52.354;16.974;2022-11-15T05:29:04;149.20;;;55.20;;
45863;SDS011;31579;52.354;16.974;2022-11-15T05:34:04;149.20;;;55.20;;
45863;SDS011;31579;52.354;16.974;2022-11-15T05:39:05;428.40;;;85.50;;
45863;SDS011;31579;52.354;16.974;2022-11-15T05:44:07;428.40;;;85.50;;
45863;SDS011;31579;52.354;16.974;2022-11-15T05:49:05;337.20;;;74.70;;
45863;SDS011;31579;52.354;16.974;2022-11-15T05:54:22;337.20;;;74.70;;
45863;SDS011;31579;52.354;16.974;2022-11-15T05:59:22;160.50;;;56.70;;
45863;SDS011;31579;52.354;16.974;2022-11-15T06:04:22;160.50;;;56.70;;
45863;SDS011;31579;52.354;16.974;2022-11-15T06:09:22;175.10;;;54.60;;
45863;SDS011;31579;52.354;16.974;2022-11-15T06:14:22;175.10;;;54.60;;
45863;SDS011;31579;52.354;16.974;2022-11-15T06:19:22;375.90;;;76.60;;
45863;SDS011;31579;52.354;16.974;2022-11-15T06:24:22;375.90;;;76.60;;
45863;SDS011;31579;52.354;16.974;2022-11-15T06:29:22;183.80;;;55.50;;
45863;SDS011;31579;52.354;16.974;2022-11-15T06:34:22;183.80;;;55.50;;
45863;SDS011;31579;52.354;16.974;2022-11-15T06:39:22;416.00;;;77.10;;
45863;SDS011;31579;52.354;16.974;2022-11-15T06:44:22;416.00;;;77.10;;
45863;SDS011;31579;52.354;16.974;2022-11-15T06:49:22;428.30;;;84.20;;
45863;SDS011;31579;52.354;16.974;2022-11-15T06:54:22;428.30;;;84.20;;
45863;SDS011;31579;52.354;16.974;2022-11-15T06:59:22;305.60;;;66.60;;
45863;SDS011;31579;52.354;16.974;2022-11-15T07:04:22;305.60;;;66.60;;
45863;SDS011;31579;52.354;16.974;2022-11-15T07:09:22;163.00;;;53.90;;
45863;SDS011;31579;52.354;16.974;2022-11-15T07:14:22;163.00;;;53.90;;
45863;SDS011;31579;52.354;16.974;2022-11-15T07:19:22;380.20;;;75.50;;
45863;SDS011;31579;52.354;16.974;2022-11-15T07:24:22;380.20;;;75.50;;
45863;SDS011;31579;52.354;16.974;2022-11-15T07:29:22;155.30;;;53.70;;
45863;SDS011;31579;52.354;16.974;2022-11-15T07:34:22;155.30;;;53.70;;
45863;SDS011;31579;52.354;16.974;2022-11-15T07:39:22;417.10;;;81.70;;
45863;SDS011;31579;52.354;16.974;2022-11-15T07:44:22;417.10;;;81.70;;
45863;SDS011;31579;52.354;16.974;2022-11-15T07:49:22;156.00;;;56.70;;
45863;SDS011;31579;52.354;16.974;2022-11-15T07:54:22;156.00;;;56.70;;
45863;SDS011;31579;52.354;16.974;2022-11-15T07:59:22;178.20;;;60.50;;
45863;SDS011;31579;52.354;16.974;2022-11-15T08:04:22;178.20;;;60.50;;
45863;SDS011;31579;52.354;16.974;2022-11-15T08:09:22;163.50;;;53.90;;
45863;SDS011;31579;52.354;16.974;2022-11-15T08:14:22;163.50;;;53.90;;
45863;SDS011;31579;52.354;16.974;2022-11-15T08:19:22;143.20;;;50.80;;
45863;SDS011;31579;52.354;16.974;2022-11-15T08:21:04;143.20;;;50.80;;
45863;SDS011;31579;52.354;16.974;2022-11-15T08:26:03;143.20;;;50.80;;
45863;SDS011;31579;52.354;16.974;2022-11-15T08:31:03;191.30;;;53.90;;
45863;SDS011;31579;52.354;16.974;2022-11-15T08:36:03;191.30;;;53.90;;
45863;SDS011;31579;52.354;16.974;2022-11-15T08:41:03;121.60;;;45.70;;
45863;SDS011;31579;52.354;16.974;2022-11-15T08:46:03;121.60;;;45.70;;
45863;SDS011;31579;52.354;16.974;2022-11-15T08:51:03;212.60;;;51.20;;
45863;SDS011;31579;52.354;16.974;2022-11-15T08:56:06;212.60;;;51.20;;
45863;SDS011;31579;52.354;16.974;2022-11-15T09:01:03;106.40;;;43.90;;
45863;SDS011;31579;52.354;16.974;2022-11-15T09:06:03;106.40;;;43.90;;
45863;SDS011;31579;52.354;16.974;2022-11-15T09:11:07;122.90;;;41.40;;
45863;SDS011;31579;52.354;16.974;2022-11-15T09:14:05;122.90;;;41.40;;
45863;SDS011;31579;52.354;16.974;2022-11-15T09:19:04;113.50;;;46.50;;
45863;SDS011;31579;52.354;16.974;2022-11-15T09:24:04;113.50;;;46.50;;
45863;SDS011;31579;52.354;16.974;2022-11-15T09:29:04;82.20;;;40.30;;
45863;SDS011;31579;52.354;16.974;2022-11-15T09:34:04;82.20;;;40.30;;
45863;SDS011;31579;52.354;16.974;2022-11-15T09:39:04;91.30;;;40.60;;
45863;SDS011;31579;52.354;16.974;2022-11-15T09:49:04;121.40;;;43.50;;
45863;SDS011;31579;52.354;16.974;2022-11-15T10:04:04;127.30;;;44.30;;
45863;SDS011;31579;52.354;16.974;2022-11-15T10:14:09;86.20;;;40.90;;
45863;SDS011;31579;52.354;16.974;2022-11-15T10:29:04;85.20;;;42.40;;
45863;SDS011;31579;52.354;16.974;2022-11-15T10:34:11;85.20;;;42.40;;
45863;SDS011;31579;52.354;16.974;2022-11-15T10:39:15;83.10;;;41.10;;
45863;SDS011;31579;52.354;16.974;2022-11-15T10:52:01;114.90;;;44.10;;
45863;SDS011;31579;52.354;16.974;2022-11-15T10:56:59;96.60;;;45.00;;
45863;SDS011;31579;52.354;16.974;2022-11-15T11:01:58;96.60;;;45.00;;
45863;SDS011;31579;52.354;16.974;2022-11-15T11:06:58;107.20;;;43.10;;
45863;SDS011;31579;52.354;16.974;2022-11-15T11:11:58;107.20;;;43.10;;
45863;SDS011;31579;52.354;16.974;2022-11-15T11:42:10;106.00;;;45.20;;
45863;SDS011;31579;52.354;16.974;2022-11-15T11:52:02;124.20;;;49.00;;
45863;SDS011;31579;52.354;16.974;2022-11-15T11:56:58;95.10;;;43.00;;
45863;SDS011;31579;52.354;16.974;2022-11-15T12:01:58;95.10;;;43.00;;
45863;SDS011;31579;52.354;16.974;2022-11-15T12:12:02;148.30;;;49.90;;
45863;SDS011;31579;52.354;16.974;2022-11-15T12:17:01;102.20;;;44.90;;
45863;SDS011;31579;52.354;16.974;2022-11-15T12:30:13;131.00;;;53.10;;
45863;SDS011;31579;52.354;16.974;2022-11-15T12:50:16;202.00;;;68.50;;
45863;SDS011;31579;52.354;16.974;2022-11-15T12:55:28;202.00;;;68.50;;
45863;SDS011;31579;52.354;16.974;2022-11-15T13:20:17;141.10;;;58.90;;
45863;SDS011;31579;52.354;16.974;2022-11-15T13:30:18;118.40;;;52.10;;
45863;SDS011;31579;52.354;16.974;2022-11-15T13:35:14;118.40;;;52.10;;
45863;SDS011;31579;52.354;16.974;2022-11-15T13:40:16;150.50;;;55.40;;
45863;SDS011;31579;52.354;16.974;2022-11-15T13:45:12;150.50;;;55.40;;
45863;SDS011;31579;52.354;16.974;2022-11-15T13:50:12;153.80;;;50.30;;
45863;SDS011;31579;52.354;16.974;2022-11-15T13:55:11;153.80;;;50.30;;
45863;SDS011;31579;52.354;16.974;2022-11-15T14:20:38;207.00;;;52.30;;
45863;SDS011;31579;52.354;16.974;2022-11-15T14:35:12;321.80;;;61.30;;
45863;SDS011;31579;52.354;16.974;2022-11-15T14:40:12;162.90;;;47.70;;
45863;SDS011;31579;52.354;16.974;2022-11-15T14:45:20;162.90;;;47.70;;
45863;SDS011;31579;52.354;16.974;2022-11-15T14:50:11;255.70;;;61.30;;
45863;SDS011;31579;52.354;16.974;2022-11-15T14:55:16;255.70;;;61.30;;
45863;SDS011;31579;52.354;16.974;2022-11-15T15:00:10;238.90;;;58.70;;
45863;SDS011;31579;52.354;16.974;2022-11-15T15:10:10;304.00;;;68.20;;
45863;SDS011;31579;52.354;16.974;2022-11-15T15:20:10;283.00;;;62.00;;
45863;SDS011;31579;52.354;16.974;2022-11-15T15:25:21;283.00;;;62.00;;
45863;SDS011;31579;52.354;16.974;2022-11-15T15:30:10;217.10;;;55.50;;
45863;SDS011;31579;52.354;16.974;2022-11-15T15:35:12;217.10;;;55.50;;
45863;SDS011;31579;52.354;16.974;2022-11-15T15:40:20;271.10;;;63.90;;
45863;SDS011;31579;52.354;16.974;2022-11-15T15:45:10;271.10;;;63.90;;
45863;SDS011;31579;52.354;16.974;2022-11-15T15:50:14;247.00;;;62.70;;
45863;SDS011;31579;52.354;16.974;2022-11-15T15:55:10;247.00;;;62.70;;
45863;SDS011;31579;52.354;16.974;2022-11-15T16:00:10;309.60;;;76.20;;
45863;SDS011;31579;52.354;16.974;2022-11-15T16:05:15;309.60;;;76.20;;
45863;SDS011;31579;52.354;16.974;2022-11-15T16:11:23;387.90;;;87.60;;
45863;SDS011;31579;52.354;16.974;2022-11-15T16:16:23;326.40;;;67.90;;
45863;SDS011;31579;52.354;16.974;2022-11-15T16:21:23;326.40;;;67.90;;
45863;SDS011;31579;52.354;16.974;2022-11-15T16:26:26;229.10;;;59.10;;
45863;SDS011;31579;52.354;16.974;2022-11-15T16:31:36;229.10;;;59.10;;
45863;SDS011;31579;52.354;16.974;2022-11-15T16:36:36;355.50;;;72.20;;
45863;SDS011;31579;52.354;16.974;2022-11-15T16:41:40;355.50;;;72.20;;
45863;SDS011;31579;52.354;16.974;2022-11-15T16:46:36;333.40;;;72.40;;
45863;SDS011;31579;52.354;16.974;2022-11-15T16:51:36;333.40;;;72.40;;
45863;SDS011;31579;52.354;16.974;2022-11-15T16:56:36;363.60;;;75.00;;
45863;SDS011;31579;52.354;16.974;2022-11-15T17:01:36;363.60;;;75.00;;
45863;SDS011;31579;52.354;16.974;2022-11-15T17:06:36;402.40;;;79.40;;
45863;SDS011;31579;52.354;16.974;2022-11-15T17:11:36;402.40;;;79.40;;
45863;SDS011;31579;52.354;16.974;2022-11-15T17:16:36;302.90;;;72.80;;
45863;SDS011;31579;52.354;16.974;2022-11-15T17:21:36;302.90;;;72.80;;
45863;SDS011;31579;52.354;16.974;2022-11-15T17:26:36;259.50;;;69.20;;
45863;SDS011;31579;52.354;16.974;2022-11-15T17:31:36;259.50;;;69.20;;
45863;SDS011;31579;52.354;16.974;2022-11-15T17:36:36;370.60;;;84.10;;
45863;SDS011;31579;52.354;16.974;2022-11-15T17:41:36;370.60;;;84.10;;
45863;SDS011;31579;52.354;16.974;2022-11-15T17:46:38;193.70;;;64.60;;
45863;SDS011;31579;52.354;16.974;2022-11-15T17:51:36;193.70;;;64.60;;
45863;SDS011;31579;52.354;16.974;2022-11-15T17:56:37;185.40;;;59.60;;
45863;SDS011;31579;52.354;16.974;2022-11-15T18:01:36;185.40;;;59.60;;
45863;SDS011;31579;52.354;16.974;2022-11-15T18:06:36;186.30;;;63.00;;
45863;SDS011;31579;52.354;16.974;2022-11-15T18:11:37;186.30;;;63.00;;
45863;SDS011;31579;52.354;16.974;2022-11-15T18:16:36;186.40;;;62.20;;
45863;SDS011;31579;52.354;16.974;2022-11-15T18:21:36;186.40;;;62.20;;
45863;SDS011;31579;52.354;16.974;2022-11-15T18:26:36;172.60;;;59.90;;
45863;SDS011;31579;52.354;16.974;2022-11-15T18:31:36;172.60;;;59.90;;
45863;SDS011;31579;52.354;16.974;2022-11-15T18:41:55;156.00;;;57.20;;
45863;SDS011;31579;52.354;16.974;2022-11-15T18:46:54;139.50;;;53.70;;
45863;SDS011;31579;52.354;16.974;2022-11-15T18:51:57;139.50;;;53.70;;
45863;SDS011;31579;52.354;16.974;2022-11-15T18:56:55;145.50;;;52.70;;
45863;SDS011;31579;52.354;16.974;2022-11-15T19:01:55;145.50;;;52.70;;
45863;SDS011;31579;52.354;16.974;2022-11-15T19:06:55;153.80;;;52.00;;
45863;SDS011;31579;52.354;16.974;2022-11-15T19:11:55;153.80;;;52.00;;
45863;SDS011;31579;52.354;16.974;2022-11-15T19:16:55;138.60;;;49.00;;
45863;SDS011;31579;52.354;16.974;2022-11-15T19:21:56;138.60;;;49.00;;
45863;SDS011;31579;52.354;16.974;2022-11-15T19:22:58;138.60;;;49.00;;
45863;SDS011;31579;52.354;16.974;2022-11-15T19:27:56;136.40;;;50.50;;
45863;SDS011;31579;52.354;16.974;2022-11-15T19:32:56;136.40;;;50.50;;
45863;SDS011;31579;52.354;16.974;2022-11-15T19:37:56;156.90;;;52.00;;
45863;SDS011;31579;52.354;16.974;2022-11-15T19:38:07;156.90;;;52.00;;
45863;SDS011;31579;52.354;16.974;2022-11-15T19:43:05;156.90;;;52.00;;
45863;SDS011;31579;52.354;16.974;2022-11-15T19:48:05;149.50;;;48.50;;
45863;SDS011;31579;52.354;16.974;2022-11-15T19:53:05;149.50;;;48.50;;
45863;SDS011;31579;52.354;16.974;2022-11-15T19:58:05;165.20;;;54.40;;
45863;SDS011;31579;52.354;16.974;2022-11-15T20:03:05;165.20;;;54.40;;
45863;SDS011;31579;52.354;16.974;2022-11-15T20:08:04;125.10;;;45.00;;
45863;SDS011;31579;52.354;16.974;2022-11-15T20:13:02;125.10;;;45.00;;
45863;SDS011;31579;52.354;16.974;2022-11-15T20:18:02;114.20;;;41.20;;
45863;SDS011;31579;52.354;16.974;2022-11-15T20:23:06;114.20;;;41.20;;
45863;SDS011;31579;52.354;16.974;2022-11-15T20:28:04;125.60;;;44.00;;
45863;SDS011;31579;52.354;16.974;2022-11-15T20:33:02;125.60;;;44.00;;
45863;SDS011;31579;52.354;16.974;2022-11-15T20:38:02;117.50;;;44.20;;
45863;SDS011;31579;52.354;16.974;2022-11-15T20:43:03;117.50;;;44.20;;
45863;SDS011;31579;52.354;16.974;2022-11-15T20:48:03;115.10;;;40.10;;
45863;SDS011;31579;52.354;16.974;2022-11-15T20:49:45;115.10;;;40.10;;
45863;SDS011;31579;52.354;16.974;2022-11-15T20:54:44;115.10;;;40.10;;
45863;SDS011;31579;52.354;16.974;2022-11-15T20:59:44;122.80;;;42.20;;
45863;SDS011;31579;52.354;16.974;2022-11-15T21:04:46;122.80;;;42.20;;
45863;SDS011;31579;52.354;16.974;2022-11-15T21:09:44;114.30;;;39.10;;
45863;SDS011;31579;52.354;16.974;2022-11-15T21:14:44;114.30;;;39.10;;
45863;SDS011;31579;52.354;16.974;2022-11-15T21:19:44;117.40;;;39.50;;
45863;SDS011;31579;52.354;16.974;2022-11-15T21:24:44;117.40;;;39.50;;
45863;SDS011;31579;52.354;16.974;2022-11-15T21:36:03;140.50;;;42.40;;
45863;SDS011;31579;52.354;16.974;2022-11-15T21:41:02;140.50;;;42.40;;
45863;SDS011;31579;52.354;16.974;2022-11-15T21:46:03;146.90;;;46.60;;
45863;SDS011;31579;52.354;16.974;2022-11-15T21:51:03;146.90;;;46.60;;
45863;SDS011;31579;52.354;16.974;2022-11-15T21:56:02;186.40;;;49.20;;
45863;SDS011;31579;52.354;16.974;2022-11-15T22:01:02;186.40;;;49.20;;
45863;SDS011;31579;52.354;16.974;2022-11-15T22:06:05;200.20;;;50.60;;
45863;SDS011;31579;52.354;16.974;2022-11-15T22:11:02;200.20;;;50.60;;
45863;SDS011;31579;52.354;16.974;2022-11-15T22:12:23;200.20;;;50.60;;
45863;SDS011;31579;52.354;16.974;2022-11-15T22:17:21;198.60;;;49.00;;
45863;SDS011;31579;52.354;16.974;2022-11-15T22:22:21;198.60;;;49.00;;
45863;SDS011;31579;52.354;16.974;2022-11-15T22:27:25;186.60;;;49.20;;
45863;SDS011;31579;52.354;16.974;2022-11-15T22:32:21;186.60;;;49.20;;
45863;SDS011;31579;52.354;16.974;2022-11-15T22:37:21;150.30;;;45.40;;
45863;SDS011;31579;52.354;16.974;2022-11-15T22:42:21;150.30;;;45.40;;
45863;SDS011;31579;52.354;16.974;2022-11-15T22:47:21;129.80;;;40.40;;
45863;SDS011;31579;52.354;16.974;2022-11-15T22:52:22;129.80;;;40.40;;
45863;SDS011;31579;52.354;16.974;2022-11-15T23:01:03;112.90;;;36.90;;
45863;SDS011;31579;52.354;16.974;2022-11-15T23:06:03;98.00;;;34.10;;
45863;SDS011;31579;52.354;16.974;2022-11-15T23:11:14;98.00;;;34.10;;
45863;SDS011;31579;52.354;16.974;2022-11-15T23:16:12;92.40;;;31.90;;
45863;SDS011;31579;52.354;16.974;2022-11-15T23:21:14;92.40;;;31.90;;
45863;SDS011;31579;52.354;16.974;2022-11-15T23:26:13;81.30;;;30.30;;
45863;SDS011;31579;52.354;16.974;2022-11-15T23:31:12;81.30;;;30.30;;
45863;SDS011;31579;52.354;16.974;2022-11-15T23:36:12;88.60;;;31.10;;
45863;SDS011;31579;52.354;16.974;2022-11-15T23:41:12;88.60;;;31.10;;
45863;SDS011;31579;52.354;16.974;2022-11-15T23:46:12;83.00;;;31.30;;
45863;SDS011;31579;52.354;16.974;2022-11-15T23:51:12;83.00;;;31.30;;
45863;SDS011;31579;52.354;16.974;2022-11-15T23:56:12;82.70;;;30.80;;
